sensor_id;sensor_type;location;lat;lon;timestamp;noise_LAeq;noise_LA_min;noise_LA_max;noise_LA01;noise_LA95
69619;Laerm;57653;51.434;5.984;2023-07-02T00:00:02;37.83;35.24;41.10;;
69619;Laerm;57653;51.434;5.984;2023-07-02T00:00:14;37.54;34.57;48.91;;
69619;Laerm;57653;51.434;5.984;2023-07-02T00:00:25;35.31;33.94;37.35;;
69619;Laerm;57653;51.434;5.984;2023-07-02T00:00:35;35.41;34.23;37.42;;
69619;Laerm;57653;51.434;5.984;2023-07-02T00:00:48;35.11;33.90;37.80;;
69619;Laerm;57653;51.434;5.984;2023-07-02T00:01:01;35.15;33.58;36.66;;
69619;Laerm;57653;51.434;5.984;2023-07-02T00:01:11;35.18;34.07;36.46;;
69619;Laerm;57653;51.434;5.984;2023-07-02T00:01:22;35.09;33.78;37.80;;
69619;Laerm;57653;51.434;5.984;2023-07-02T00:01:32;35.21;34.01;38.05;;
69619;Laerm;57653;51.434;5.984;2023-07-02T00:01:42;34.93;33.77;36.25;;
69619;Laerm;57653;51.434;5.984;2023-07-02T00:01:52;35.24;34.00;37.62;;
69619;Laerm;57653;51.434;5.984;2023-07-02T00:02:03;35.13;33.86;37.19;;
69619;Laerm;57653;51.434;5.984;2023-07-02T00:02:13;35.30;33.77;38.79;;
69619;Laerm;57653;51.434;5.984;2023-07-02T00:02:24;34.81;33.72;36.03;;
69619;Laerm;57653;51.434;5.984;2023-07-02T00:02:34;34.97;33.77;35.90;;
69619;Laerm;57653;51.434;5.984;2023-07-02T00:02:45;34.85;33.59;37.12;;
69619;Laerm;57653;51.434;5.984;2023-07-02T00:02:55;34.65;33.76;35.68;;
69619;Laerm;57653;51.434;5.984;2023-07-02T00:03:05;34.77;33.65;36.13;;
69619;Laerm;57653;51.434;5.984;2023-07-02T00:03:16;34.77;33.58;35.83;;
69619;Laerm;57653;51.434;5.984;2023-07-02T00:03:26;35.05;33.88;36.15;;
69619;Laerm;57653;51.434;5.984;2023-07-02T00:03:39;34.88;33.50;36.00;;
69619;Laerm;57653;51.434;5.984;2023-07-02T00:03:49;34.95;33.96;36.51;;
69619;Laerm;57653;51.434;5.984;2023-07-02T00:03:59;34.96;33.79;37.03;;
69619;Laerm;57653;51.434;5.984;2023-07-02T00:04:10;34.98;33.70;36.08;;
69619;Laerm;57653;51.434;5.984;2023-07-02T00:04:23;34.96;33.86;36.51;;
69619;Laerm;57653;51.434;5.984;2023-07-02T00:04:33;34.96;33.75;36.56;;
69619;Laerm;57653;51.434;5.984;2023-07-02T00:04:44;35.02;33.99;37.12;;
69619;Laerm;57653;51.434;5.984;2023-07-02T00:04:54;35.12;34.01;37.16;;
69619;Laerm;57653;51.434;5.984;2023-07-02T00:05:05;35.07;33.79;37.34;;
69619;Laerm;57653;51.434;5.984;2023-07-02T00:05:16;34.84;33.61;37.01;;
69619;Laerm;57653;51.434;5.984;2023-07-02T00:05:27;34.74;33.68;36.45;;
69619;Laerm;57653;51.434;5.984;2023-07-02T00:05:38;35.08;33.41;37.61;;
69619;Laerm;57653;51.434;5.984;2023-07-02T00:05:48;35.09;33.78;37.97;;
69619;Laerm;57653;51.434;5.984;2023-07-02T00:06:00;34.72;33.50;36.59;;
69619;Laerm;57653;51.434;5.984;2023-07-02T00:06:11;34.79;33.45;36.51;;
69619;Laerm;57653;51.434;5.984;2023-07-02T00:06:21;34.78;33.46;36.14;;
69619;Laerm;57653;51.434;5.984;2023-07-02T00:06:31;34.88;33.43;36.27;;
69619;Laerm;57653;51.434;5.984;2023-07-02T00:06:44;35.06;34.00;37.44;;
69619;Laerm;57653;51.434;5.984;2023-07-02T00:06:54;35.13;33.63;36.99;;
69619;Laerm;57653;51.434;5.984;2023-07-02T00:07:04;34.93;33.47;36.48;;
69619;Laerm;57653;51.434;5.984;2023-07-02T00:07:15;34.86;33.61;37.46;;
69619;Laerm;57653;51.434;5.984;2023-07-02T00:07:25;34.92;33.57;36.37;;
69619;Laerm;57653;51.434;5.984;2023-07-02T00:07:36;34.80;33.70;35.82;;
69619;Laerm;57653;51.434;5.984;2023-07-02T00:07:47;34.94;33.59;36.62;;
69619;Laerm;57653;51.434;5.984;2023-07-02T00:07:57;35.21;33.90;37.52;;
69619;Laerm;57653;51.434;5.984;2023-07-02T00:08:08;35.31;33.56;39.19;;
69619;Laerm;57653;51.434;5.984;2023-07-02T00:08:18;34.89;33.49;38.03;;
69619;Laerm;57653;51.434;5.984;2023-07-02T00:08:28;34.88;33.72;37.90;;
69619;Laerm;57653;51.434;5.984;2023-07-02T00:08:38;35.27;33.69;37.62;;
69619;Laerm;57653;51.434;5.984;2023-07-02T00:08:50;35.42;33.81;38.75;;
69619;Laerm;57653;51.434;5.984;2023-07-02T00:09:00;35.39;33.89;37.70;;
69619;Laerm;57653;51.434;5.984;2023-07-02T00:09:11;35.50;33.96;39.41;;
69619;Laerm;57653;51.434;5.984;2023-07-02T00:09:21;35.68;33.88;40.44;;
69619;Laerm;57653;51.434;5.984;2023-07-02T00:09:31;35.51;33.93;42.14;;
69619;Laerm;57653;51.434;5.984;2023-07-02T00:09:42;36.99;33.70;43.13;;
69619;Laerm;57653;51.434;5.984;2023-07-02T00:09:52;36.73;34.26;43.81;;
69619;Laerm;57653;51.434;5.984;2023-07-02T00:10:03;35.51;34.10;37.80;;
69619;Laerm;57653;51.434;5.984;2023-07-02T00:10:13;35.14;33.80;37.69;;
69619;Laerm;57653;51.434;5.984;2023-07-02T00:10:24;34.98;33.76;37.85;;
69619;Laerm;57653;51.434;5.984;2023-07-02T00:10:34;34.80;33.35;36.75;;
69619;Laerm;57653;51.434;5.984;2023-07-02T00:10:44;34.87;33.66;35.88;;
69619;Laerm;57653;51.434;5.984;2023-07-02T00:10:55;34.99;33.50;41.20;;
69619;Laerm;57653;51.434;5.984;2023-07-02T00:11:05;34.89;33.71;37.52;;
69619;Laerm;57653;51.434;5.984;2023-07-02T00:11:15;35.08;33.52;37.75;;
69619;Laerm;57653;51.434;5.984;2023-07-02T00:11:26;35.03;33.65;36.66;;
69619;Laerm;57653;51.434;5.984;2023-07-02T00:11:39;35.01;33.83;36.71;;
69619;Laerm;57653;51.434;5.984;2023-07-02T00:11:50;34.92;33.53;36.36;;
69619;Laerm;57653;51.434;5.984;2023-07-02T00:12:00;35.03;33.74;36.43;;
69619;Laerm;57653;51.434;5.984;2023-07-02T00:12:10;35.12;33.62;38.50;;
69619;Laerm;57653;51.434;5.984;2023-07-02T00:12:21;34.72;33.55;35.83;;
69619;Laerm;57653;51.434;5.984;2023-07-02T00:12:31;34.66;33.73;35.96;;
69619;Laerm;57653;51.434;5.984;2023-07-02T00:12:41;34.75;33.69;36.17;;
69619;Laerm;57653;51.434;5.984;2023-07-02T00:12:54;34.75;33.49;37.65;;
69619;Laerm;57653;51.434;5.984;2023-07-02T00:13:04;34.95;33.84;36.71;;
69619;Laerm;57653;51.434;5.984;2023-07-02T00:13:15;35.27;33.86;37.76;;
69619;Laerm;57653;51.434;5.984;2023-07-02T00:13:25;35.09;33.80;36.62;;
69619;Laerm;57653;51.434;5.984;2023-07-02T00:13:35;35.03;33.78;36.81;;
69619;Laerm;57653;51.434;5.984;2023-07-02T00:13:45;35.00;33.91;36.96;;
69619;Laerm;57653;51.434;5.984;2023-07-02T00:13:56;35.34;33.88;38.14;;
69619;Laerm;57653;51.434;5.984;2023-07-02T00:14:06;35.44;33.87;38.59;;
69619;Laerm;57653;51.434;5.984;2023-07-02T00:14:17;35.43;33.86;40.17;;
69619;Laerm;57653;51.434;5.984;2023-07-02T00:14:27;35.02;33.57;37.43;;
69619;Laerm;57653;51.434;5.984;2023-07-02T00:14:37;35.30;34.09;37.06;;
69619;Laerm;57653;51.434;5.984;2023-07-02T00:14:48;34.79;33.41;36.01;;
69619;Laerm;57653;51.434;5.984;2023-07-02T00:14:58;34.95;33.92;36.01;;
69619;Laerm;57653;51.434;5.984;2023-07-02T00:15:08;34.86;33.72;36.18;;
69619;Laerm;57653;51.434;5.984;2023-07-02T00:15:19;34.97;33.42;36.17;;
69619;Laerm;57653;51.434;5.984;2023-07-02T00:15:29;34.89;33.61;36.71;;
69619;Laerm;57653;51.434;5.984;2023-07-02T00:15:39;35.16;33.82;38.52;;
69619;Laerm;57653;51.434;5.984;2023-07-02T00:15:49;35.65;34.30;37.94;;
69619;Laerm;57653;51.434;5.984;2023-07-02T00:16:00;35.55;33.90;39.68;;
69619;Laerm;57653;51.434;5.984;2023-07-02T00:16:10;35.52;33.82;39.39;;
69619;Laerm;57653;51.434;5.984;2023-07-02T00:16:20;35.37;33.67;38.45;;
69619;Laerm;57653;51.434;5.984;2023-07-02T00:16:30;35.00;33.82;36.53;;
69619;Laerm;57653;51.434;5.984;2023-07-02T00:16:44;35.17;33.62;37.08;;
69619;Laerm;57653;51.434;5.984;2023-07-02T00:16:55;34.90;33.75;36.31;;
69619;Laerm;57653;51.434;5.984;2023-07-02T00:17:05;34.84;33.59;36.79;;
69619;Laerm;57653;51.434;5.984;2023-07-02T00:17:16;34.83;33.36;36.36;;
69619;Laerm;57653;51.434;5.984;2023-07-02T00:17:26;35.21;34.16;37.98;;
69619;Laerm;57653;51.434;5.984;2023-07-02T00:17:36;35.46;34.05;38.73;;
69619;Laerm;57653;51.434;5.984;2023-07-02T00:17:49;35.33;34.00;38.76;;
69619;Laerm;57653;51.434;5.984;2023-07-02T00:18:00;35.41;33.71;38.04;;
69619;Laerm;57653;51.434;5.984;2023-07-02T00:18:10;34.92;33.76;37.52;;
69619;Laerm;57653;51.434;5.984;2023-07-02T00:18:20;35.10;34.12;36.33;;
69619;Laerm;57653;51.434;5.984;2023-07-02T00:18:30;34.96;33.66;36.63;;
69619;Laerm;57653;51.434;5.984;2023-07-02T00:18:44;35.51;33.51;38.67;;
69619;Laerm;57653;51.434;5.984;2023-07-02T00:18:54;35.27;34.16;37.36;;
69619;Laerm;57653;51.434;5.984;2023-07-02T00:19:04;35.27;34.12;37.11;;
69619;Laerm;57653;51.434;5.984;2023-07-02T00:19:15;35.23;33.86;38.03;;
69619;Laerm;57653;51.434;5.984;2023-07-02T00:19:25;35.42;33.86;38.80;;
69619;Laerm;57653;51.434;5.984;2023-07-02T00:19:36;35.37;33.90;38.64;;
69619;Laerm;57653;51.434;5.984;2023-07-02T00:19:46;36.07;34.36;39.13;;
69619;Laerm;57653;51.434;5.984;2023-07-02T00:19:57;35.85;33.91;40.15;;
69619;Laerm;57653;51.434;5.984;2023-07-02T00:20:07;35.96;34.12;39.98;;
69619;Laerm;57653;51.434;5.984;2023-07-02T00:20:18;36.24;34.35;39.51;;
69619;Laerm;57653;51.434;5.984;2023-07-02T00:20:29;36.08;34.60;39.48;;
69619;Laerm;57653;51.434;5.984;2023-07-02T00:20:44;36.07;34.21;40.71;;
69619;Laerm;57653;51.434;5.984;2023-07-02T00:20:55;35.15;33.69;37.22;;
69619;Laerm;57653;51.434;5.984;2023-07-02T00:21:06;34.85;33.72;38.86;;
69619;Laerm;57653;51.434;5.984;2023-07-02T00:21:16;34.93;33.79;36.60;;
69619;Laerm;57653;51.434;5.984;2023-07-02T00:21:26;34.93;33.47;36.93;;
69619;Laerm;57653;51.434;5.984;2023-07-02T00:21:37;34.90;33.25;36.58;;
69619;Laerm;57653;51.434;5.984;2023-07-02T00:21:49;34.92;33.54;36.91;;
69619;Laerm;57653;51.434;5.984;2023-07-02T00:21:59;34.78;33.71;36.33;;
69619;Laerm;57653;51.434;5.984;2023-07-02T00:22:09;34.74;33.71;36.09;;
69619;Laerm;57653;51.434;5.984;2023-07-02T00:22:20;34.76;33.68;36.13;;
69619;Laerm;57653;51.434;5.984;2023-07-02T00:22:30;34.87;33.80;37.80;;
69619;Laerm;57653;51.434;5.984;2023-07-02T00:22:41;35.23;33.80;39.28;;
69619;Laerm;57653;51.434;5.984;2023-07-02T00:22:56;34.69;33.68;35.99;;
69619;Laerm;57653;51.434;5.984;2023-07-02T00:23:06;34.73;33.65;35.96;;
69619;Laerm;57653;51.434;5.984;2023-07-02T00:23:18;34.94;33.64;36.32;;
69619;Laerm;57653;51.434;5.984;2023-07-02T00:23:30;34.89;33.77;38.56;;
69619;Laerm;57653;51.434;5.984;2023-07-02T00:23:40;34.88;33.71;36.88;;
69619;Laerm;57653;51.434;5.984;2023-07-02T00:23:50;34.85;33.43;36.08;;
69619;Laerm;57653;51.434;5.984;2023-07-02T00:24:01;35.39;34.00;38.90;;
69619;Laerm;57653;51.434;5.984;2023-07-02T00:24:12;35.63;34.11;39.34;;
69619;Laerm;57653;51.434;5.984;2023-07-02T00:24:22;36.39;34.02;40.61;;
69619;Laerm;57653;51.434;5.984;2023-07-02T00:24:32;36.64;34.20;41.46;;
69619;Laerm;57653;51.434;5.984;2023-07-02T00:24:42;36.41;34.15;42.08;;
69619;Laerm;57653;51.434;5.984;2023-07-02T00:24:53;36.21;34.06;39.79;;
69619;Laerm;57653;51.434;5.984;2023-07-02T00:25:05;36.39;34.08;41.09;;
69619;Laerm;57653;51.434;5.984;2023-07-02T00:25:16;35.02;33.28;38.33;;
69619;Laerm;57653;51.434;5.984;2023-07-02T00:25:26;35.03;34.07;36.22;;
69619;Laerm;57653;51.434;5.984;2023-07-02T00:25:36;34.86;33.55;36.28;;
69619;Laerm;57653;51.434;5.984;2023-07-02T00:25:47;34.86;33.66;37.68;;
69619;Laerm;57653;51.434;5.984;2023-07-02T00:25:57;34.92;33.57;36.21;;
69619;Laerm;57653;51.434;5.984;2023-07-02T00:26:07;34.95;33.73;36.43;;
69619;Laerm;57653;51.434;5.984;2023-07-02T00:26:18;34.81;33.81;36.61;;
69619;Laerm;57653;51.434;5.984;2023-07-02T00:26:28;34.90;33.89;36.21;;
69619;Laerm;57653;51.434;5.984;2023-07-02T00:26:38;34.90;33.61;36.20;;
69619;Laerm;57653;51.434;5.984;2023-07-02T00:26:50;35.03;33.88;36.50;;
69619;Laerm;57653;51.434;5.984;2023-07-02T00:27:00;35.14;34.06;36.50;;
69619;Laerm;57653;51.434;5.984;2023-07-02T00:27:10;35.25;33.95;37.24;;
69619;Laerm;57653;51.434;5.984;2023-07-02T00:27:21;35.00;33.63;36.22;;
69619;Laerm;57653;51.434;5.984;2023-07-02T00:27:31;35.12;33.94;36.56;;
69619;Laerm;57653;51.434;5.984;2023-07-02T00:27:41;35.32;34.05;38.58;;
69619;Laerm;57653;51.434;5.984;2023-07-02T00:27:52;35.36;34.12;39.60;;
69619;Laerm;57653;51.434;5.984;2023-07-02T00:28:02;35.26;33.82;39.25;;
69619;Laerm;57653;51.434;5.984;2023-07-02T00:28:13;35.22;33.87;36.51;;
69619;Laerm;57653;51.434;5.984;2023-07-02T00:28:23;35.76;33.86;39.86;;
69619;Laerm;57653;51.434;5.984;2023-07-02T00:28:33;35.41;33.58;40.34;;
69619;Laerm;57653;51.434;5.984;2023-07-02T00:28:44;35.08;33.90;36.42;;
69619;Laerm;57653;51.434;5.984;2023-07-02T00:28:54;35.20;33.69;37.88;;
69619;Laerm;57653;51.434;5.984;2023-07-02T00:29:05;35.06;33.47;42.79;;
69619;Laerm;57653;51.434;5.984;2023-07-02T00:29:16;34.66;33.37;36.89;;
69619;Laerm;57653;51.434;5.984;2023-07-02T00:29:26;35.27;33.91;38.40;;
69619;Laerm;57653;51.434;5.984;2023-07-02T00:29:36;34.91;33.66;37.19;;
69619;Laerm;57653;51.434;5.984;2023-07-02T00:29:47;35.22;33.94;37.39;;
69619;Laerm;57653;51.434;5.984;2023-07-02T00:29:57;35.13;33.80;37.43;;
69619;Laerm;57653;51.434;5.984;2023-07-02T00:30:07;34.66;33.36;35.93;;
69619;Laerm;57653;51.434;5.984;2023-07-02T00:30:18;34.75;33.71;35.99;;
69619;Laerm;57653;51.434;5.984;2023-07-02T00:30:28;34.74;33.69;36.12;;
69619;Laerm;57653;51.434;5.984;2023-07-02T00:30:38;34.80;33.83;36.68;;
69619;Laerm;57653;51.434;5.984;2023-07-02T00:30:49;34.63;33.53;35.77;;
69619;Laerm;57653;51.434;5.984;2023-07-02T00:30:59;35.05;33.77;37.72;;
69619;Laerm;57653;51.434;5.984;2023-07-02T00:31:09;35.13;33.68;42.96;;
69619;Laerm;57653;51.434;5.984;2023-07-02T00:31:20;34.79;33.67;36.03;;
69619;Laerm;57653;51.434;5.984;2023-07-02T00:31:31;35.10;33.74;37.49;;
69619;Laerm;57653;51.434;5.984;2023-07-02T00:31:41;35.22;33.37;39.78;;
69619;Laerm;57653;51.434;5.984;2023-07-02T00:31:51;34.93;33.91;37.77;;
69619;Laerm;57653;51.434;5.984;2023-07-02T00:32:02;34.96;33.80;36.62;;
69619;Laerm;57653;51.434;5.984;2023-07-02T00:32:12;35.04;33.89;37.93;;
69619;Laerm;57653;51.434;5.984;2023-07-02T00:32:22;34.95;33.65;36.34;;
69619;Laerm;57653;51.434;5.984;2023-07-02T00:32:33;34.69;33.41;35.57;;
69619;Laerm;57653;51.434;5.984;2023-07-02T00:32:43;34.70;33.44;37.23;;
69619;Laerm;57653;51.434;5.984;2023-07-02T00:32:53;34.69;33.65;35.75;;
69619;Laerm;57653;51.434;5.984;2023-07-02T00:33:03;34.97;33.59;37.79;;
69619;Laerm;57653;51.434;5.984;2023-07-02T00:33:14;34.84;33.81;36.25;;
69619;Laerm;57653;51.434;5.984;2023-07-02T00:33:25;34.78;33.64;36.09;;
69619;Laerm;57653;51.434;5.984;2023-07-02T00:33:35;34.87;33.68;36.49;;
69619;Laerm;57653;51.434;5.984;2023-07-02T00:33:46;35.08;33.93;36.95;;
69619;Laerm;57653;51.434;5.984;2023-07-02T00:33:56;34.91;33.87;36.29;;
69619;Laerm;57653;51.434;5.984;2023-07-02T00:34:07;34.97;33.40;36.77;;
69619;Laerm;57653;51.434;5.984;2023-07-02T00:34:17;35.56;34.18;38.85;;
69619;Laerm;57653;51.434;5.984;2023-07-02T00:34:28;35.24;33.51;38.03;;
69619;Laerm;57653;51.434;5.984;2023-07-02T00:34:38;35.18;33.86;38.27;;
69619;Laerm;57653;51.434;5.984;2023-07-02T00:34:48;35.09;33.79;39.56;;
69619;Laerm;57653;51.434;5.984;2023-07-02T00:34:59;34.96;33.28;37.79;;
69619;Laerm;57653;51.434;5.984;2023-07-02T00:35:09;35.24;33.73;38.05;;
69619;Laerm;57653;51.434;5.984;2023-07-02T00:35:19;35.35;33.71;38.61;;
69619;Laerm;57653;51.434;5.984;2023-07-02T00:35:30;35.35;33.95;38.58;;
69619;Laerm;57653;51.434;5.984;2023-07-02T00:35:40;36.34;33.87;46.98;;
69619;Laerm;57653;51.434;5.984;2023-07-02T00:35:50;35.86;33.94;39.88;;
69619;Laerm;57653;51.434;5.984;2023-07-02T00:36:01;35.31;33.79;40.72;;
69619;Laerm;57653;51.434;5.984;2023-07-02T00:36:12;35.53;33.88;42.16;;
69619;Laerm;57653;51.434;5.984;2023-07-02T00:36:24;35.83;33.51;42.53;;
69619;Laerm;57653;51.434;5.984;2023-07-02T00:36:34;36.62;34.24;46.45;;
69619;Laerm;57653;51.434;5.984;2023-07-02T00:36:44;35.41;34.15;38.62;;
69619;Laerm;57653;51.434;5.984;2023-07-02T00:36:55;35.06;33.84;36.94;;
69619;Laerm;57653;51.434;5.984;2023-07-02T00:37:05;35.42;33.92;40.75;;
69619;Laerm;57653;51.434;5.984;2023-07-02T00:37:15;35.06;33.85;37.38;;
69619;Laerm;57653;51.434;5.984;2023-07-02T00:37:26;35.69;33.88;45.50;;
69619;Laerm;57653;51.434;5.984;2023-07-02T00:37:36;35.31;33.88;38.48;;
69619;Laerm;57653;51.434;5.984;2023-07-02T00:37:47;35.07;33.74;39.82;;
69619;Laerm;57653;51.434;5.984;2023-07-02T00:37:57;35.17;33.80;38.56;;
69619;Laerm;57653;51.434;5.984;2023-07-02T00:38:08;35.31;33.89;40.39;;
69619;Laerm;57653;51.434;5.984;2023-07-02T00:38:18;35.74;34.50;39.00;;
69619;Laerm;57653;51.434;5.984;2023-07-02T00:38:28;36.51;33.92;43.88;;
69619;Laerm;57653;51.434;5.984;2023-07-02T00:38:38;36.14;34.07;39.48;;
69619;Laerm;57653;51.434;5.984;2023-07-02T00:38:49;39.71;36.21;45.97;;
69619;Laerm;57653;51.434;5.984;2023-07-02T00:38:59;37.56;34.65;41.45;;
69619;Laerm;57653;51.434;5.984;2023-07-02T00:39:09;35.15;33.83;38.54;;
69619;Laerm;57653;51.434;5.984;2023-07-02T00:39:22;35.83;34.04;40.31;;
69619;Laerm;57653;51.434;5.984;2023-07-02T00:39:32;35.91;34.09;39.55;;
69619;Laerm;57653;51.434;5.984;2023-07-02T00:39:42;36.25;34.34;40.01;;
69619;Laerm;57653;51.434;5.984;2023-07-02T00:39:52;36.35;33.95;39.57;;
69619;Laerm;57653;51.434;5.984;2023-07-02T00:40:03;35.44;33.92;39.40;;
69619;Laerm;57653;51.434;5.984;2023-07-02T00:40:13;36.26;34.00;39.53;;
69619;Laerm;57653;51.434;5.984;2023-07-02T00:40:24;35.66;34.04;37.59;;
69619;Laerm;57653;51.434;5.984;2023-07-02T00:40:34;35.59;34.00;42.67;;
69619;Laerm;57653;51.434;5.984;2023-07-02T00:40:44;35.02;33.66;37.75;;
69619;Laerm;57653;51.434;5.984;2023-07-02T00:40:54;37.08;33.94;45.52;;
69619;Laerm;57653;51.434;5.984;2023-07-02T00:41:04;36.99;33.89;46.03;;
69619;Laerm;57653;51.434;5.984;2023-07-02T00:41:15;37.57;34.06;46.00;;
69619;Laerm;57653;51.434;5.984;2023-07-02T00:41:26;38.19;33.64;45.48;;
69619;Laerm;57653;51.434;5.984;2023-07-02T00:41:36;36.00;33.89;41.69;;
69619;Laerm;57653;51.434;5.984;2023-07-02T00:41:47;36.12;33.91;39.68;;
69619;Laerm;57653;51.434;5.984;2023-07-02T00:42:01;35.42;33.92;39.28;;
69619;Laerm;57653;51.434;5.984;2023-07-02T00:42:13;34.74;33.79;36.08;;
69619;Laerm;57653;51.434;5.984;2023-07-02T00:42:24;34.96;33.76;37.33;;
69619;Laerm;57653;51.434;5.984;2023-07-02T00:42:36;35.24;33.66;37.98;;
69619;Laerm;57653;51.434;5.984;2023-07-02T00:42:46;35.20;33.58;38.54;;
69619;Laerm;57653;51.434;5.984;2023-07-02T00:42:56;35.65;34.21;38.80;;
69619;Laerm;57653;51.434;5.984;2023-07-02T00:43:07;35.30;33.97;38.92;;
69619;Laerm;57653;51.434;5.984;2023-07-02T00:43:23;35.60;33.95;38.39;;
69619;Laerm;57653;51.434;5.984;2023-07-02T00:43:33;35.57;33.81;38.04;;
69619;Laerm;57653;51.434;5.984;2023-07-02T00:43:43;35.44;34.26;37.76;;
69619;Laerm;57653;51.434;5.984;2023-07-02T00:43:54;35.14;33.88;37.81;;
69619;Laerm;57653;51.434;5.984;2023-07-02T00:44:04;34.81;33.58;36.82;;
69619;Laerm;57653;51.434;5.984;2023-07-02T00:44:14;34.89;33.65;37.05;;
69619;Laerm;57653;51.434;5.984;2023-07-02T00:44:25;35.00;33.70;36.49;;
69619;Laerm;57653;51.434;5.984;2023-07-02T00:44:35;34.81;33.56;36.05;;
69619;Laerm;57653;51.434;5.984;2023-07-02T00:44:50;34.93;33.42;36.62;;
69619;Laerm;57653;51.434;5.984;2023-07-02T00:45:02;35.20;34.00;37.82;;
69619;Laerm;57653;51.434;5.984;2023-07-02T00:45:13;35.21;33.72;38.06;;
69619;Laerm;57653;51.434;5.984;2023-07-02T00:45:23;35.51;34.02;37.28;;
69619;Laerm;57653;51.434;5.984;2023-07-02T00:45:36;35.19;33.59;36.89;;
69619;Laerm;57653;51.434;5.984;2023-07-02T00:45:48;35.18;33.99;36.23;;
69619;Laerm;57653;51.434;5.984;2023-07-02T00:45:58;34.82;33.66;36.13;;
69619;Laerm;57653;51.434;5.984;2023-07-02T00:46:10;34.78;33.65;36.39;;
69619;Laerm;57653;51.434;5.984;2023-07-02T00:46:22;35.08;33.63;42.65;;
69619;Laerm;57653;51.434;5.984;2023-07-02T00:46:35;34.87;33.28;36.07;;
69619;Laerm;57653;51.434;5.984;2023-07-02T00:46:45;34.75;33.45;36.08;;
69619;Laerm;57653;51.434;5.984;2023-07-02T00:46:55;34.80;33.47;37.59;;
69619;Laerm;57653;51.434;5.984;2023-07-02T00:47:08;34.75;33.78;35.83;;
69619;Laerm;57653;51.434;5.984;2023-07-02T00:47:19;34.84;33.86;35.88;;
69619;Laerm;57653;51.434;5.984;2023-07-02T00:47:32;34.72;33.62;35.68;;
69619;Laerm;57653;51.434;5.984;2023-07-02T00:47:44;34.79;33.46;36.13;;
69619;Laerm;57653;51.434;5.984;2023-07-02T00:47:55;34.65;33.56;37.68;;
69619;Laerm;57653;51.434;5.984;2023-07-02T00:48:05;34.78;33.83;35.71;;
69619;Laerm;57653;51.434;5.984;2023-07-02T00:48:16;34.83;33.64;36.57;;
69619;Laerm;57653;51.434;5.984;2023-07-02T00:48:26;34.93;33.50;36.07;;
69619;Laerm;57653;51.434;5.984;2023-07-02T00:48:38;35.03;33.79;39.04;;
69619;Laerm;57653;51.434;5.984;2023-07-02T00:48:49;34.78;33.74;36.08;;
69619;Laerm;57653;51.434;5.984;2023-07-02T00:48:59;34.75;33.64;36.18;;
69619;Laerm;57653;51.434;5.984;2023-07-02T00:49:11;34.69;33.56;36.11;;
69619;Laerm;57653;51.434;5.984;2023-07-02T00:49:22;34.78;33.45;35.93;;
69619;Laerm;57653;51.434;5.984;2023-07-02T00:49:32;34.83;33.70;35.99;;
69619;Laerm;57653;51.434;5.984;2023-07-02T00:49:43;34.75;33.75;35.80;;
69619;Laerm;57653;51.434;5.984;2023-07-02T00:49:53;34.68;33.23;35.89;;
69619;Laerm;57653;51.434;5.984;2023-07-02T00:50:04;34.81;33.64;37.43;;
69619;Laerm;57653;51.434;5.984;2023-07-02T00:50:15;35.34;33.94;38.34;;
69619;Laerm;57653;51.434;5.984;2023-07-02T00:50:25;35.11;33.82;36.28;;
69619;Laerm;57653;51.434;5.984;2023-07-02T00:50:37;34.73;33.68;36.18;;
69619;Laerm;57653;51.434;5.984;2023-07-02T00:50:47;34.71;33.51;37.07;;
69619;Laerm;57653;51.434;5.984;2023-07-02T00:50:57;34.85;33.72;36.14;;
69619;Laerm;57653;51.434;5.984;2023-07-02T00:51:08;34.87;33.76;36.20;;
69619;Laerm;57653;51.434;5.984;2023-07-02T00:51:23;34.82;33.37;36.01;;
69619;Laerm;57653;51.434;5.984;2023-07-02T00:51:33;35.03;33.64;39.63;;
69619;Laerm;57653;51.434;5.984;2023-07-02T00:51:44;34.99;33.81;36.38;;
69619;Laerm;57653;51.434;5.984;2023-07-02T00:51:54;34.65;33.69;36.10;;
69619;Laerm;57653;51.434;5.984;2023-07-02T00:52:05;34.77;33.76;36.21;;
69619;Laerm;57653;51.434;5.984;2023-07-02T00:52:16;34.88;33.83;37.60;;
69619;Laerm;57653;51.434;5.984;2023-07-02T00:52:28;34.81;33.58;36.12;;
69619;Laerm;57653;51.434;5.984;2023-07-02T00:52:38;34.76;33.70;35.81;;
69619;Laerm;57653;51.434;5.984;2023-07-02T00:52:49;34.65;33.50;35.95;;
69619;Laerm;57653;51.434;5.984;2023-07-02T00:52:59;34.68;33.39;36.01;;
69619;Laerm;57653;51.434;5.984;2023-07-02T00:53:09;34.97;33.47;35.94;;
69619;Laerm;57653;51.434;5.984;2023-07-02T00:53:20;34.94;33.59;36.25;;
69619;Laerm;57653;51.434;5.984;2023-07-02T00:53:30;34.85;33.64;36.59;;
69619;Laerm;57653;51.434;5.984;2023-07-02T00:53:45;35.37;33.84;39.90;;
69619;Laerm;57653;51.434;5.984;2023-07-02T00:53:57;34.92;33.73;39.02;;
69619;Laerm;57653;51.434;5.984;2023-07-02T00:54:07;35.41;33.77;39.05;;
69619;Laerm;57653;51.434;5.984;2023-07-02T00:54:18;35.60;34.02;39.12;;
69619;Laerm;57653;51.434;5.984;2023-07-02T00:54:28;35.69;33.83;39.26;;
69619;Laerm;57653;51.434;5.984;2023-07-02T00:54:39;35.84;34.14;38.94;;
69619;Laerm;57653;51.434;5.984;2023-07-02T00:54:50;35.26;33.85;37.82;;
69619;Laerm;57653;51.434;5.984;2023-07-02T00:55:01;35.00;33.74;36.40;;
69619;Laerm;57653;51.434;5.984;2023-07-02T00:55:11;34.84;33.26;36.20;;
69619;Laerm;57653;51.434;5.984;2023-07-02T00:55:22;34.94;33.94;36.29;;
69619;Laerm;57653;51.434;5.984;2023-07-02T00:55:32;34.71;33.36;35.85;;
69619;Laerm;57653;51.434;5.984;2023-07-02T00:55:42;34.70;33.58;36.85;;
69619;Laerm;57653;51.434;5.984;2023-07-02T00:55:53;34.78;33.49;36.11;;
69619;Laerm;57653;51.434;5.984;2023-07-02T00:56:03;34.92;33.71;36.03;;
69619;Laerm;57653;51.434;5.984;2023-07-02T00:56:13;34.79;33.49;35.82;;
69619;Laerm;57653;51.434;5.984;2023-07-02T00:56:24;34.92;33.88;36.03;;
69619;Laerm;57653;51.434;5.984;2023-07-02T00:56:35;34.75;33.60;35.85;;
69619;Laerm;57653;51.434;5.984;2023-07-02T00:56:45;35.00;33.62;36.62;;
69619;Laerm;57653;51.434;5.984;2023-07-02T00:56:56;34.74;33.54;36.48;;
69619;Laerm;57653;51.434;5.984;2023-07-02T00:57:06;34.60;33.48;35.59;;
69619;Laerm;57653;51.434;5.984;2023-07-02T00:57:16;34.71;33.66;35.59;;
69619;Laerm;57653;51.434;5.984;2023-07-02T00:57:27;34.64;33.58;35.46;;
69619;Laerm;57653;51.434;5.984;2023-07-02T00:57:39;35.24;33.59;37.48;;
69619;Laerm;57653;51.434;5.984;2023-07-02T00:57:50;35.44;33.86;37.70;;
69619;Laerm;57653;51.434;5.984;2023-07-02T00:58:01;35.15;33.88;36.39;;
69619;Laerm;57653;51.434;5.984;2023-07-02T00:58:12;34.73;33.70;35.81;;
69619;Laerm;57653;51.434;5.984;2023-07-02T00:58:25;34.94;33.68;36.89;;
69619;Laerm;57653;51.434;5.984;2023-07-02T00:58:37;34.97;33.65;36.76;;
69619;Laerm;57653;51.434;5.984;2023-07-02T00:58:49;35.24;33.87;37.78;;
69619;Laerm;57653;51.434;5.984;2023-07-02T00:59:00;35.35;33.92;37.57;;
69619;Laerm;57653;51.434;5.984;2023-07-02T00:59:11;35.62;34.13;38.32;;
69619;Laerm;57653;51.434;5.984;2023-07-02T00:59:21;35.30;33.65;36.72;;
69619;Laerm;57653;51.434;5.984;2023-07-02T00:59:32;35.53;34.15;38.98;;
69619;Laerm;57653;51.434;5.984;2023-07-02T00:59:45;35.54;33.99;40.21;;
69619;Laerm;57653;51.434;5.984;2023-07-02T00:59:57;35.35;34.15;37.12;;
69619;Laerm;57653;51.434;5.984;2023-07-02T01:00:07;35.67;33.72;43.33;;